createdAt,value
2022-12-22T00:00:00.745Z,25.83
2022-12-22T00:01:22.438Z,26.08
2022-12-22T00:02:44.050Z,27.85
2022-12-22T00:04:05.452Z,26.98
2022-12-22T00:05:35.827Z,26.15
2022-12-22T00:06:56.862Z,26.17
2022-12-22T00:08:18.229Z,26.60
2022-12-22T00:09:39.631Z,24.95
2022-12-22T00:11:01.385Z,25.92
2022-12-22T00:12:22.713Z,27.73
2022-12-22T00:13:44.031Z,25.67
2022-12-22T00:15:05.497Z,26.20
2022-12-22T00:16:27.368Z,26.98
2022-12-22T00:17:48.775Z,26.15
2022-12-22T00:19:10.186Z,24.58
2022-12-22T00:20:39.163Z,26.40
2022-12-22T00:22:00.668Z,27.65
2022-12-22T00:23:22.215Z,27.50
2022-12-22T00:24:43.417Z,25.60
2022-12-22T00:26:05.919Z,26.75
2022-12-22T00:27:36.867Z,26.25
2022-12-22T00:29:01.166Z,25.40
2022-12-22T00:30:23.011Z,25.13
2022-12-22T00:31:45.147Z,24.90
2022-12-22T00:33:07.491Z,25.20
2022-12-22T00:34:39.273Z,27.70
2022-12-22T00:36:00.882Z,25.13
2022-12-22T00:37:22.722Z,26.02
2022-12-22T00:38:43.768Z,25.38
2022-12-22T00:41:26.355Z,26.13
2022-12-22T00:42:47.764Z,25.55
2022-12-22T00:44:08.991Z,25.95
2022-12-22T00:45:30.396Z,25.80
2022-12-22T00:46:53.300Z,25.73
2022-12-22T00:48:14.657Z,25.65
2022-12-22T00:49:35.732Z,26.15
2022-12-22T00:50:57.040Z,26.45
2022-12-22T00:52:18.481Z,26.33
2022-12-22T00:53:40.218Z,26.63
2022-12-22T00:55:01.567Z,26.08
2022-12-22T00:56:26.968Z,25.23
2022-12-22T00:57:48.570Z,25.90
2022-12-22T00:59:11.123Z,26.27
2022-12-22T01:00:37.055Z,24.55
2022-12-22T01:01:58.671Z,25.63
2022-12-22T01:03:20.140Z,25.48
2022-12-22T01:04:41.908Z,25.85
2022-12-22T01:06:03.168Z,27.52
2022-12-22T01:07:24.495Z,25.63
2022-12-22T01:08:45.852Z,25.98
2022-12-22T01:10:10.494Z,26.13
2022-12-22T01:11:31.889Z,24.45
2022-12-22T01:12:56.179Z,24.67
2022-12-22T01:14:17.721Z,24.33
2022-12-22T01:15:39.350Z,26.75
2022-12-22T01:17:00.744Z,27.67
2022-12-22T01:18:22.907Z,26.30
2022-12-22T01:19:44.434Z,26.35
2022-12-22T01:21:05.646Z,27.42
2022-12-22T01:22:30.095Z,25.92
2022-12-22T01:23:51.847Z,25.08
2022-12-22T01:25:13.152Z,26.08
2022-12-22T01:26:34.324Z,24.88
2022-12-22T01:27:55.750Z,23.92
2022-12-22T01:29:16.975Z,22.98
2022-12-22T01:30:38.300Z,24.92
2022-12-22T01:32:00.168Z,24.45
2022-12-22T01:33:21.305Z,22.92
2022-12-22T01:34:42.582Z,23.13
2022-12-22T01:36:03.498Z,24.83
2022-12-22T01:38:45.897Z,21.98
2022-12-22T01:40:07.198Z,24.98
2022-12-22T01:41:33.837Z,23.23
2022-12-22T01:42:55.748Z,24.00
2022-12-22T01:44:16.932Z,23.40
2022-12-22T01:45:52.680Z,23.85
2022-12-22T01:47:45.970Z,23.30
2022-12-22T01:49:07.146Z,24.75
2022-12-22T01:50:28.493Z,23.13
2022-12-22T01:51:49.579Z,21.98
2022-12-22T01:53:14.790Z,23.05
2022-12-22T01:54:39.160Z,23.95
2022-12-22T01:56:00.784Z,23.88
2022-12-22T01:57:22.171Z,22.83
2022-12-22T01:58:48.822Z,23.40
2022-12-22T02:00:10.485Z,22.42
2022-12-22T02:01:35.353Z,23.10
2022-12-22T02:02:57.226Z,22.42
2022-12-22T02:04:19.253Z,22.88
2022-12-22T02:05:40.613Z,22.77
2022-12-22T02:07:04.040Z,21.38
2022-12-22T02:08:33.856Z,22.83
2022-12-22T02:09:57.945Z,22.50
2022-12-22T02:11:29.374Z,22.33
2022-12-22T02:12:56.517Z,21.15
2022-12-22T02:14:30.113Z,21.95
2022-12-22T02:16:00.466Z,20.83
2022-12-22T02:17:30.866Z,21.65
2022-12-22T02:19:10.345Z,19.92
2022-12-22T02:20:49.695Z,21.80
2022-12-22T02:23:01.349Z,22.63
2022-12-22T02:25:55.116Z,20.00
2022-12-22T02:27:18.579Z,20.77
2022-12-22T02:28:40.262Z,20.88
2022-12-22T02:30:13.456Z,21.05
2022-12-22T02:31:35.029Z,20.42
2022-12-22T02:33:07.074Z,20.52
2022-12-22T02:34:33.281Z,20.05
2022-12-22T02:36:21.270Z,19.85
2022-12-22T02:38:09.243Z,20.27
2022-12-22T02:40:11.597Z,20.38
2022-12-22T02:42:02.267Z,21.00
2022-12-22T02:43:44.885Z,19.40
2022-12-22T02:45:33.980Z,19.38
2022-12-22T02:47:16.381Z,19.52
2022-12-22T02:49:13.253Z,19.60
2022-12-22T02:50:50.573Z,18.67
2022-12-22T02:52:16.853Z,18.92
2022-12-22T02:53:38.985Z,18.10
2022-12-22T02:55:00.416Z,19.98
2022-12-22T02:56:25.834Z,19.70
2022-12-22T02:57:48.454Z,18.88
2022-12-22T02:59:09.496Z,19.55
2022-12-22T03:00:31.709Z,20.75
2022-12-22T03:01:53.358Z,19.98
2022-12-22T03:03:14.741Z,18.48
2022-12-22T03:04:35.958Z,18.50
2022-12-22T03:05:57.212Z,18.77
2022-12-22T03:07:18.407Z,21.42
2022-12-22T03:08:39.800Z,18.58
2022-12-22T03:10:01.119Z,18.83
2022-12-22T03:11:22.739Z,20.85
2022-12-22T03:12:43.945Z,19.73
2022-12-22T03:14:05.200Z,19.38
2022-12-22T03:15:26.732Z,18.80
2022-12-22T03:16:48.038Z,19.25
2022-12-22T03:18:09.248Z,17.67
2022-12-22T03:19:30.431Z,19.75
2022-12-22T03:20:51.891Z,19.67
2022-12-22T03:22:12.952Z,17.83
2022-12-22T03:23:34.469Z,18.77
2022-12-22T03:24:55.680Z,17.52
2022-12-22T03:25:58.457Z,19.20
2022-12-22T03:27:01.263Z,18.83
2022-12-22T03:28:06.198Z,19.45
2022-12-22T03:29:08.948Z,18.80
2022-12-22T03:30:11.859Z,19.83
2022-12-22T03:31:14.938Z,19.40
2022-12-22T03:32:17.804Z,19.35
2022-12-22T03:33:21.004Z,19.00
2022-12-22T03:34:23.788Z,19.30
2022-12-22T03:35:26.628Z,19.73
2022-12-22T03:36:29.489Z,21.23
2022-12-22T03:37:32.204Z,20.02
2022-12-22T03:38:35.045Z,18.42
2022-12-22T03:39:37.948Z,19.65
2022-12-22T03:40:40.895Z,19.58
2022-12-22T03:42:01.920Z,19.25
2022-12-22T03:44:44.106Z,16.85
2022-12-22T03:46:05.522Z,18.35
2022-12-22T03:47:08.319Z,17.15
2022-12-22T03:48:11.109Z,18.73
2022-12-22T03:49:13.974Z,19.05
2022-12-22T03:50:16.707Z,18.92
2022-12-22T03:51:19.404Z,17.52
2022-12-22T03:52:22.120Z,19.42
2022-12-22T03:53:24.857Z,19.08
2022-12-22T03:54:27.752Z,19.30
2022-12-22T03:55:30.494Z,19.55
2022-12-22T03:56:33.581Z,20.02
2022-12-22T03:57:36.357Z,20.73
2022-12-22T03:58:39.181Z,20.17
2022-12-22T03:59:42.007Z,20.27
2022-12-22T04:00:44.828Z,19.10
2022-12-22T04:01:52.693Z,20.20
2022-12-22T04:02:58.765Z,20.60
2022-12-22T04:04:01.612Z,18.15
2022-12-22T04:05:04.733Z,19.88
2022-12-22T04:06:07.517Z,20.80
2022-12-22T04:07:10.567Z,19.75
2022-12-22T04:08:13.254Z,18.88
2022-12-22T04:09:16.266Z,19.38
2022-12-22T04:10:37.666Z,22.70
2022-12-22T04:11:59.277Z,19.17
2022-12-22T04:13:02.120Z,20.42
2022-12-22T04:14:04.948Z,20.02
2022-12-22T04:15:08.434Z,19.92
2022-12-22T04:16:11.171Z,20.10
2022-12-22T04:17:14.139Z,19.85
2022-12-22T04:18:16.912Z,19.30
2022-12-22T04:19:19.810Z,20.08
2022-12-22T04:20:24.377Z,19.02
2022-12-22T04:21:27.343Z,19.77
2022-12-22T04:22:30.393Z,20.40
2022-12-22T04:23:33.314Z,20.92
2022-12-22T04:24:36.110Z,20.33
2022-12-22T04:25:38.935Z,20.75
2022-12-22T04:26:41.855Z,19.10
2022-12-22T04:27:44.853Z,19.60
2022-12-22T04:28:47.827Z,20.70
2022-12-22T04:29:50.608Z,19.25
2022-12-22T04:30:53.331Z,21.55
2022-12-22T04:31:56.098Z,19.63
2022-12-22T04:32:59.061Z,21.02
2022-12-22T04:34:01.893Z,18.80
2022-12-22T04:35:05.528Z,20.30
2022-12-22T04:36:08.931Z,18.65
2022-12-22T04:37:17.233Z,19.80
2022-12-22T04:38:20.596Z,19.42
2022-12-22T04:39:23.366Z,18.98
2022-12-22T04:40:26.131Z,19.38
2022-12-22T04:41:28.932Z,19.70
2022-12-22T04:42:31.741Z,19.65
2022-12-22T04:43:34.672Z,21.25
2022-12-22T04:44:37.430Z,20.38
2022-12-22T04:45:40.204Z,19.95
2022-12-22T04:46:43.019Z,18.90
2022-12-22T04:47:45.835Z,19.40
2022-12-22T04:48:48.621Z,20.42
2022-12-22T04:49:52.526Z,21.33
2022-12-22T04:50:56.929Z,21.00
2022-12-22T04:51:59.740Z,19.67
2022-12-22T04:53:03.071Z,20.75
2022-12-22T04:54:05.867Z,21.02
2022-12-22T04:55:09.508Z,19.08
2022-12-22T04:56:12.252Z,19.58
2022-12-22T04:57:14.984Z,20.58
2022-12-22T04:58:17.967Z,17.95
2022-12-22T04:59:20.703Z,21.08
2022-12-22T05:00:23.529Z,20.92
2022-12-22T05:01:26.576Z,20.35
2022-12-22T05:02:29.489Z,20.73
2022-12-22T05:03:32.418Z,20.00
2022-12-22T05:04:35.247Z,19.40
2022-12-22T05:05:38.561Z,21.13
2022-12-22T05:06:41.378Z,19.23
2022-12-22T05:07:44.343Z,20.23
2022-12-22T05:08:47.198Z,20.02
2022-12-22T05:09:50.349Z,19.90
2022-12-22T05:10:53.068Z,19.45
2022-12-22T05:11:55.836Z,18.95
2022-12-22T05:12:58.876Z,20.02
2022-12-22T05:14:07.019Z,20.08
2022-12-22T05:15:10.668Z,18.83
2022-12-22T05:16:15.072Z,19.85
2022-12-22T05:17:18.390Z,19.40
2022-12-22T05:18:21.122Z,20.00
2022-12-22T05:19:29.118Z,19.35
2022-12-22T05:20:35.950Z,19.80
2022-12-22T05:21:38.713Z,19.13
2022-12-22T05:22:41.436Z,18.33
2022-12-22T05:23:44.894Z,18.25
2022-12-22T05:24:47.669Z,20.23
2022-12-22T05:25:50.471Z,18.83
2022-12-22T05:26:53.476Z,19.33
2022-12-22T05:27:56.252Z,19.80
2022-12-22T05:28:59.187Z,19.15
2022-12-22T05:30:02.231Z,17.17
2022-12-22T05:31:10.216Z,19.55
2022-12-22T05:32:13.064Z,20.73
2022-12-22T05:33:15.771Z,19.73
2022-12-22T05:34:18.591Z,19.45
2022-12-22T05:35:21.494Z,20.67
2022-12-22T05:36:24.553Z,20.92
2022-12-22T05:37:27.281Z,18.13
2022-12-22T05:38:30.451Z,18.73
2022-12-22T05:39:33.234Z,18.33
2022-12-22T05:40:36.079Z,18.63
2022-12-22T05:41:38.775Z,19.65
2022-12-22T05:42:41.596Z,20.13
2022-12-22T05:43:44.494Z,17.25
2022-12-22T05:44:47.198Z,19.73
2022-12-22T05:45:50.033Z,18.33
2022-12-22T05:46:52.975Z,19.08
2022-12-22T05:47:58.177Z,19.27
2022-12-22T05:49:00.893Z,20.33
2022-12-22T05:50:04.055Z,18.40
2022-12-22T05:51:10.460Z,19.35
2022-12-22T05:52:13.383Z,18.50
2022-12-22T05:53:16.153Z,19.00
2022-12-22T05:54:18.824Z,19.25
2022-12-22T05:55:21.496Z,18.80
2022-12-22T05:56:24.274Z,18.48
2022-12-22T05:57:27.300Z,19.83
2022-12-22T05:58:30.004Z,18.25
2022-12-22T05:59:33.160Z,17.52
2022-12-22T06:00:35.989Z,17.80
2022-12-22T06:01:38.954Z,19.30
2022-12-22T06:02:42.691Z,18.02
2022-12-22T06:03:46.055Z,17.90
2022-12-22T06:04:48.912Z,19.42
2022-12-22T06:05:51.821Z,17.15
2022-12-22T06:06:54.646Z,18.52
2022-12-22T06:07:57.454Z,17.13
2022-12-22T06:09:00.138Z,17.75
2022-12-22T06:10:11.309Z,17.55
2022-12-22T06:11:18.239Z,18.13
2022-12-22T06:12:20.963Z,19.88
2022-12-22T06:13:24.282Z,19.00
2022-12-22T06:14:27.114Z,19.35
2022-12-22T06:15:29.859Z,18.15
2022-12-22T06:16:32.695Z,18.00
2022-12-22T06:17:42.112Z,17.92
2022-12-22T06:18:46.993Z,18.50
2022-12-22T06:19:49.706Z,17.88
2022-12-22T06:20:53.598Z,17.70
2022-12-22T06:21:56.421Z,18.15
2022-12-22T06:22:59.243Z,17.88
2022-12-22T06:24:02.756Z,17.85
2022-12-22T06:25:05.880Z,18.27
2022-12-22T06:26:09.494Z,18.27
2022-12-22T06:27:12.973Z,16.58
2022-12-22T06:28:15.718Z,18.20
2022-12-22T06:29:18.461Z,18.42
2022-12-22T06:30:24.531Z,16.98
2022-12-22T06:31:30.288Z,17.90
2022-12-22T06:32:36.692Z,17.80
2022-12-22T06:33:39.610Z,19.45
2022-12-22T06:34:42.326Z,17.70
2022-12-22T06:35:45.613Z,17.77
2022-12-22T06:36:49.215Z,19.00
2022-12-22T06:37:52.082Z,19.42
2022-12-22T06:38:54.780Z,19.33
2022-12-22T06:39:57.495Z,16.95
2022-12-22T06:41:00.296Z,17.13
2022-12-22T06:42:21.768Z,17.95
2022-12-22T06:43:24.997Z,18.83
2022-12-22T06:44:28.125Z,17.88
2022-12-22T06:45:31.014Z,17.73
2022-12-22T06:46:34.242Z,17.83
2022-12-22T06:47:37.216Z,16.30
2022-12-22T06:48:39.954Z,18.38
2022-12-22T06:49:42.644Z,17.08
2022-12-22T06:50:45.594Z,17.90
2022-12-22T06:51:48.550Z,17.40
2022-12-22T06:52:51.427Z,18.20
2022-12-22T06:53:54.458Z,16.17
2022-12-22T06:54:57.500Z,16.50
2022-12-22T06:56:00.333Z,16.95
2022-12-22T06:57:03.380Z,16.63
2022-12-22T06:58:06.166Z,16.67
2022-12-22T06:59:09.124Z,16.92
2022-12-22T07:00:12.254Z,17.48
2022-12-22T07:01:15.309Z,15.75
2022-12-22T07:02:18.282Z,17.15
2022-12-22T07:03:21.372Z,16.70
2022-12-22T07:04:24.472Z,15.95
2022-12-22T07:05:27.377Z,15.30
2022-12-22T07:06:30.104Z,14.70
2022-12-22T07:07:32.796Z,14.88
2022-12-22T07:08:35.664Z,16.58
2022-12-22T07:09:38.492Z,16.35
2022-12-22T07:10:59.394Z,16.25
2022-12-22T07:13:19.380Z,15.13
2022-12-22T07:14:22.444Z,17.02
2022-12-22T07:15:25.133Z,16.30
2022-12-22T07:16:28.149Z,16.50
2022-12-22T07:17:30.913Z,16.58
2022-12-22T07:18:39.137Z,16.45
2022-12-22T07:19:41.954Z,17.05
2022-12-22T07:20:44.825Z,16.70
2022-12-22T07:21:51.467Z,16.52
2022-12-22T07:22:54.193Z,16.08
2022-12-22T07:23:57.126Z,14.60
2022-12-22T07:25:00.168Z,14.80
2022-12-22T07:26:03.751Z,13.70
2022-12-22T07:27:06.572Z,15.20
2022-12-22T07:28:11.429Z,15.90
2022-12-22T07:29:16.410Z,16.42
2022-12-22T07:30:19.323Z,14.50
2022-12-22T07:31:23.437Z,14.85
2022-12-22T07:32:26.245Z,14.15
2022-12-22T07:33:29.309Z,15.10
2022-12-22T07:34:32.001Z,15.05
2022-12-22T07:35:34.972Z,15.55
2022-12-22T07:36:37.907Z,16.42
2022-12-22T07:37:40.597Z,16.38
2022-12-22T07:38:46.089Z,16.52
2022-12-22T07:39:48.740Z,16.58
2022-12-22T07:40:52.384Z,14.80
2022-12-22T07:42:14.598Z,15.30
2022-12-22T07:43:17.389Z,15.35
2022-12-22T07:44:20.184Z,16.02
2022-12-22T07:45:23.707Z,16.48
2022-12-22T07:46:29.535Z,16.27
2022-12-22T07:47:35.543Z,14.77
2022-12-22T07:48:56.907Z,14.20
2022-12-22T07:50:18.109Z,15.00
2022-12-22T07:51:20.829Z,14.88
2022-12-22T07:52:23.564Z,14.55
2022-12-22T07:53:26.364Z,14.75
2022-12-22T07:54:29.459Z,16.15
2022-12-22T07:55:36.271Z,16.00
2022-12-22T07:56:39.632Z,15.48
2022-12-22T07:57:42.325Z,16.48
2022-12-22T07:58:45.042Z,14.90
2022-12-22T07:59:48.515Z,15.02
2022-12-22T08:00:51.210Z,16.50
2022-12-22T08:01:54.062Z,16.75
2022-12-22T08:02:57.696Z,17.40
2022-12-22T08:04:00.758Z,17.00
2022-12-22T08:05:03.828Z,17.35
2022-12-22T08:06:07.123Z,16.90
2022-12-22T08:07:10.186Z,18.80
2022-12-22T08:08:13.081Z,16.83
2022-12-22T08:09:17.443Z,15.65
2022-12-22T08:10:20.894Z,15.23
2022-12-22T08:11:23.771Z,14.90
2022-12-22T08:12:26.981Z,14.80
2022-12-22T08:13:30.498Z,14.77
2022-12-22T08:14:33.215Z,16.08
2022-12-22T08:15:38.299Z,16.80
2022-12-22T08:16:41.264Z,15.82
2022-12-22T08:17:44.139Z,16.55
2022-12-22T08:18:46.991Z,15.38
2022-12-22T08:19:49.841Z,15.50
2022-12-22T08:20:52.644Z,16.02
2022-12-22T08:21:55.401Z,15.52
2022-12-22T08:22:58.156Z,14.65
2022-12-22T08:24:00.877Z,15.75
2022-12-22T08:25:03.933Z,14.30
2022-12-22T08:26:20.389Z,15.80
2022-12-22T08:27:27.583Z,15.52
2022-12-22T08:28:31.757Z,13.88
2022-12-22T08:29:38.787Z,15.95
2022-12-22T08:30:41.910Z,15.90
2022-12-22T08:31:45.081Z,16.15
2022-12-22T08:32:49.221Z,15.05
2022-12-22T08:33:53.279Z,15.93
2022-12-22T08:34:56.088Z,15.05
2022-12-22T08:36:05.851Z,16.85
2022-12-22T08:37:13.832Z,17.52
2022-12-22T08:38:16.652Z,16.85
2022-12-22T08:39:20.479Z,17.02
2022-12-22T08:40:26.151Z,17.67
2022-12-22T08:41:48.283Z,18.50
2022-12-22T08:42:54.066Z,17.95
2022-12-22T08:43:56.818Z,19.13
2022-12-22T08:44:59.545Z,16.15
2022-12-22T08:46:02.616Z,17.52
2022-12-22T08:47:08.885Z,18.88
2022-12-22T08:48:14.348Z,15.65
2022-12-22T08:49:17.353Z,15.43
2022-12-22T08:50:20.432Z,15.82
2022-12-22T08:51:23.354Z,15.43
2022-12-22T08:52:26.320Z,15.80
2022-12-22T08:54:03.479Z,14.65
2022-12-22T08:54:51.991Z,14.65
2022-12-22T08:55:56.179Z,16.67
2022-12-22T08:56:58.883Z,15.35
2022-12-22T08:58:01.736Z,15.32
2022-12-22T08:59:07.710Z,14.40
2022-12-22T09:00:13.367Z,14.30
2022-12-22T09:01:21.123Z,15.30
2022-12-22T09:02:24.061Z,12.98
2022-12-22T09:03:27.034Z,14.77
2022-12-22T09:04:29.806Z,13.70
2022-12-22T09:05:33.693Z,14.85
2022-12-22T09:06:41.238Z,14.98
2022-12-22T09:07:47.203Z,15.32
2022-12-22T09:08:57.591Z,13.65
2022-12-22T09:10:00.452Z,13.98
2022-12-22T09:11:04.548Z,15.00
2022-12-22T09:12:07.921Z,15.60
2022-12-22T09:13:10.693Z,14.50
2022-12-22T09:14:13.683Z,15.27
2022-12-22T09:15:18.393Z,14.70
2022-12-22T09:16:22.717Z,13.77
2022-12-22T09:17:25.484Z,13.90
2022-12-22T09:18:28.315Z,13.48
2022-12-22T09:19:31.065Z,14.13
2022-12-22T09:20:33.786Z,12.35
2022-12-22T09:21:36.614Z,13.85
2022-12-22T09:22:39.391Z,15.07
2022-12-22T09:23:42.180Z,13.98
2022-12-22T09:24:45.172Z,12.90
2022-12-22T09:25:47.858Z,13.75
2022-12-22T09:26:50.624Z,14.43
2022-12-22T09:27:53.392Z,14.30
2022-12-22T09:28:56.817Z,12.60
2022-12-22T09:29:59.734Z,15.50
2022-12-22T09:31:02.687Z,13.88
2022-12-22T09:32:05.924Z,14.13
2022-12-22T09:33:08.874Z,14.02
2022-12-22T09:34:17.231Z,14.68
2022-12-22T09:35:21.063Z,13.73
2022-12-22T09:36:26.711Z,14.35
2022-12-22T09:37:29.591Z,14.18
2022-12-22T09:38:32.483Z,14.75
2022-12-22T09:39:35.216Z,13.48
2022-12-22T09:40:38.106Z,13.85
2022-12-22T09:41:51.372Z,13.20
2022-12-22T09:42:54.113Z,14.70
2022-12-22T09:44:01.905Z,13.57
2022-12-22T09:45:05.280Z,13.80
2022-12-22T09:46:37.471Z,14.55
2022-12-22T09:47:41.439Z,13.73
2022-12-22T09:48:44.169Z,13.73
2022-12-22T09:49:47.113Z,14.75
2022-12-22T09:50:49.845Z,13.27
2022-12-22T09:52:01.266Z,14.55
2022-12-22T09:53:05.301Z,14.90
2022-12-22T09:54:11.565Z,14.23
2022-12-22T09:55:26.294Z,15.15
2022-12-22T09:56:29.752Z,13.70
2022-12-22T09:57:33.195Z,14.50
2022-12-22T09:58:36.065Z,14.50
2022-12-22T09:59:38.958Z,15.35
2022-12-22T10:00:41.849Z,16.70
2022-12-22T10:02:08.595Z,14.38
2022-12-22T10:03:41.895Z,14.80
2022-12-22T10:04:59.711Z,13.93
2022-12-22T10:06:19.136Z,14.75
2022-12-22T10:07:40.285Z,14.57
2022-12-22T10:08:43.352Z,14.25
2022-12-22T10:09:51.349Z,13.07
2022-12-22T10:10:56.032Z,13.63
2022-12-22T10:12:01.668Z,12.98
2022-12-22T10:13:06.439Z,14.15
2022-12-22T10:14:11.330Z,14.85
2022-12-22T10:15:20.026Z,13.15
2022-12-22T10:16:27.808Z,14.50
2022-12-22T10:17:32.853Z,14.68
2022-12-22T10:18:35.601Z,12.55
2022-12-22T10:19:38.481Z,14.05
2022-12-22T10:20:42.719Z,13.10
2022-12-22T10:21:50.420Z,13.48
2022-12-22T10:23:02.915Z,14.75
2022-12-22T10:24:35.654Z,14.45
2022-12-22T10:26:26.309Z,14.00
2022-12-22T10:27:09.075Z,13.75
2022-12-22T10:28:19.669Z,14.68
2022-12-22T10:30:29.538Z,12.98
2022-12-22T10:31:35.085Z,12.98
2022-12-22T10:32:37.895Z,14.15
2022-12-22T10:33:46.713Z,13.82
2022-12-22T10:35:07.155Z,14.07
2022-12-22T10:36:10.195Z,14.63
2022-12-22T10:37:12.906Z,13.50
2022-12-22T10:38:22.225Z,13.77
2022-12-22T10:39:33.283Z,13.93
2022-12-22T10:40:43.489Z,14.60
2022-12-22T10:41:48.620Z,12.70
2022-12-22T10:42:55.535Z,14.48
2022-12-22T10:44:10.474Z,13.45
2022-12-22T10:45:19.409Z,13.95
2022-12-22T10:46:32.627Z,13.00
2022-12-22T10:47:36.004Z,13.27
2022-12-22T10:48:39.544Z,14.10
2022-12-22T10:49:46.230Z,13.30
2022-12-22T10:50:49.864Z,14.13
2022-12-22T10:52:09.119Z,13.40
2022-12-22T10:53:11.904Z,12.63
2022-12-22T10:54:25.455Z,13.75
2022-12-22T10:55:29.522Z,14.50
2022-12-22T10:56:33.317Z,14.85
2022-12-22T10:57:36.107Z,13.27
2022-12-22T10:59:05.436Z,14.38
2022-12-22T11:00:30.733Z,13.05
2022-12-22T11:01:37.421Z,13.88
2022-12-22T11:02:40.533Z,14.48
2022-12-22T11:03:43.626Z,12.85
2022-12-22T11:04:47.240Z,14.75
2022-12-22T11:05:50.154Z,13.73
2022-12-22T11:06:54.180Z,14.70
2022-12-22T11:08:00.799Z,13.55
2022-12-22T11:09:31.408Z,13.15
2022-12-22T11:10:32.195Z,14.35
2022-12-22T11:11:58.810Z,13.27
2022-12-22T11:13:39.044Z,13.32
2022-12-22T11:15:18.576Z,14.15
2022-12-22T11:16:50.513Z,13.63
2022-12-22T11:18:14.330Z,14.48
2022-12-22T11:19:29.127Z,14.15
2022-12-22T11:20:53.350Z,13.23
2022-12-22T11:22:14.304Z,13.77
2022-12-22T11:23:41.277Z,13.85
2022-12-22T11:24:52.686Z,13.32
2022-12-22T11:26:09.341Z,14.60
2022-12-22T11:27:21.127Z,14.63
2022-12-22T11:28:33.651Z,14.63
2022-12-22T11:29:51.366Z,14.60
2022-12-22T11:31:06.040Z,15.55
2022-12-22T11:32:23.516Z,14.30
2022-12-22T11:33:26.452Z,15.55
2022-12-22T11:34:51.123Z,13.25
2022-12-22T11:35:56.673Z,14.65
2022-12-22T11:37:23.148Z,13.95
2022-12-22T11:38:34.572Z,14.13
2022-12-22T11:40:11.913Z,14.48
2022-12-22T11:41:31.275Z,14.70
2022-12-22T11:43:11.554Z,15.57
2022-12-22T11:44:20.029Z,15.40
2022-12-22T11:45:27.756Z,15.10
2022-12-22T11:46:38.794Z,14.95
2022-12-22T11:47:47.387Z,14.65
2022-12-22T11:48:59.447Z,15.38
2022-12-22T11:50:58.746Z,14.70
2022-12-22T11:52:04.183Z,14.70
2022-12-22T11:53:35.563Z,14.00
2022-12-22T11:54:41.043Z,13.80
2022-12-22T11:55:48.809Z,14.85
2022-12-22T11:57:17.631Z,15.68
2022-12-22T11:58:49.071Z,13.77
2022-12-22T12:00:16.825Z,14.05
2022-12-22T12:01:37.067Z,15.48
2022-12-22T12:02:48.752Z,14.48
2022-12-22T12:03:57.141Z,16.45
2022-12-22T12:05:19.512Z,15.43
2022-12-22T12:06:29.657Z,15.82
2022-12-22T12:07:43.733Z,16.42
2022-12-22T12:08:59.080Z,16.77
2022-12-22T12:10:18.270Z,16.67
2022-12-22T12:11:33.363Z,16.23
2022-12-22T12:13:03.121Z,15.90
2022-12-22T12:14:34.881Z,15.07
2022-12-22T12:15:44.692Z,16.15
2022-12-22T12:17:09.027Z,15.27
2022-12-22T12:18:42.398Z,16.48
2022-12-22T12:19:55.215Z,15.95
2022-12-22T12:21:09.892Z,14.23
2022-12-22T12:22:32.478Z,16.10
2022-12-22T12:24:21.875Z,15.75
2022-12-22T12:25:40.811Z,16.02
2022-12-22T12:27:08.404Z,15.73
2022-12-22T12:28:25.056Z,15.95
2022-12-22T12:29:29.627Z,16.23
2022-12-22T12:30:40.907Z,16.60
2022-12-22T12:32:05.662Z,16.48
2022-12-22T12:33:31.611Z,16.33
2022-12-22T12:34:37.612Z,18.63
2022-12-22T12:36:24.057Z,15.40
2022-12-22T12:37:39.085Z,15.38
2022-12-22T12:39:08.405Z,18.00
2022-12-22T12:40:33.144Z,15.95
2022-12-22T12:42:13.163Z,17.33
2022-12-22T12:43:16.945Z,14.48
2022-12-22T12:44:23.925Z,16.80
2022-12-22T12:45:41.249Z,17.52
2022-12-22T12:46:53.097Z,16.23
2022-12-22T12:48:21.751Z,16.70
2022-12-22T12:49:36.917Z,16.45
2022-12-22T12:50:39.710Z,16.90
2022-12-22T12:51:48.690Z,17.70
2022-12-22T12:52:51.286Z,17.30
2022-12-22T12:54:22.982Z,17.20
2022-12-22T12:55:32.797Z,17.00
2022-12-22T12:56:56.039Z,16.20
2022-12-22T12:58:00.979Z,19.10
2022-12-22T12:59:03.843Z,18.23
2022-12-22T13:00:35.752Z,16.85
2022-12-22T13:01:57.938Z,17.15
2022-12-22T13:03:07.836Z,16.77
2022-12-22T13:04:10.911Z,17.55
2022-12-22T13:05:30.331Z,17.67
2022-12-22T13:06:51.059Z,17.15
2022-12-22T13:08:24.834Z,15.65
2022-12-22T13:10:55.116Z,15.05
2022-12-22T13:12:17.146Z,16.80
2022-12-22T13:13:23.762Z,16.00
2022-12-22T13:14:59.038Z,15.10
2022-12-22T13:16:10.473Z,15.60
2022-12-22T13:17:40.837Z,16.23
2022-12-22T13:18:49.774Z,15.18
2022-12-22T13:19:54.317Z,14.57
2022-12-22T13:22:37.700Z,16.45
2022-12-22T13:24:29.067Z,15.57
2022-12-22T13:25:42.632Z,15.18
2022-12-22T13:26:46.038Z,14.98
2022-12-22T13:27:51.318Z,15.07
2022-12-22T13:28:57.401Z,16.92
2022-12-22T13:30:00.232Z,16.60
2022-12-22T13:31:34.125Z,14.57
2022-12-22T13:32:40.874Z,14.95
2022-12-22T13:33:44.925Z,15.10
2022-12-22T13:36:20.613Z,14.82
2022-12-22T13:37:26.420Z,14.90
2022-12-22T13:38:31.633Z,16.88
2022-12-22T13:39:34.361Z,14.77
2022-12-22T13:40:44.240Z,14.43
2022-12-22T13:41:48.844Z,13.85
2022-12-22T13:42:57.102Z,14.77
2022-12-22T13:44:08.123Z,14.93
2022-12-22T13:45:21.046Z,15.52
2022-12-22T13:46:24.032Z,14.63
2022-12-22T13:47:27.809Z,15.35
2022-12-22T13:48:44.190Z,14.90
2022-12-22T13:50:08.451Z,14.80
2022-12-22T13:51:19.766Z,14.63
2022-12-22T13:52:23.509Z,14.27
2022-12-22T13:55:25.395Z,15.00
2022-12-22T13:56:39.725Z,16.20
2022-12-22T13:57:42.607Z,15.80
2022-12-22T13:58:46.026Z,15.73
2022-12-22T13:59:51.004Z,15.20
2022-12-22T14:01:10.423Z,15.00
2022-12-22T14:02:21.165Z,13.88
2022-12-22T14:03:50.333Z,15.35
2022-12-22T14:05:09.515Z,14.13
2022-12-22T14:06:31.771Z,16.67
2022-12-22T14:07:34.767Z,15.05
2022-12-22T14:08:37.545Z,16.88
2022-12-22T14:09:45.231Z,15.10
2022-12-22T14:10:48.938Z,15.23
2022-12-22T14:12:13.303Z,16.67
2022-12-22T14:13:18.875Z,16.15
2022-12-22T14:14:28.257Z,16.83
2022-12-22T14:15:31.243Z,15.05
2022-12-22T14:16:34.195Z,15.98
2022-12-22T14:17:38.525Z,15.18
2022-12-22T14:18:41.552Z,16.00
2022-12-22T14:19:44.256Z,15.27
2022-12-22T14:20:47.603Z,15.35
2022-12-22T14:22:14.534Z,17.00
2022-12-22T14:23:21.404Z,15.98
2022-12-22T14:24:25.825Z,16.88
2022-12-22T14:25:34.849Z,16.48
2022-12-22T14:26:38.223Z,14.75
2022-12-22T14:27:44.564Z,15.38
2022-12-22T14:28:53.246Z,16.35
2022-12-22T14:29:56.679Z,14.75
2022-12-22T14:31:00.944Z,15.68
2022-12-22T14:32:04.297Z,15.93
2022-12-22T14:33:28.283Z,15.45
2022-12-22T14:34:33.100Z,14.80
2022-12-22T14:35:35.917Z,14.77
2022-12-22T14:36:41.588Z,15.02
2022-12-22T14:37:44.370Z,16.50
2022-12-22T14:38:49.519Z,16.33
2022-12-22T14:39:56.619Z,14.05
2022-12-22T14:40:59.347Z,15.02
2022-12-22T14:42:03.747Z,14.75
2022-12-22T14:43:16.696Z,15.60
2022-12-22T14:44:22.556Z,14.45
2022-12-22T14:45:25.554Z,14.85
2022-12-22T14:46:32.286Z,15.02
2022-12-22T14:47:37.894Z,14.75
2022-12-22T14:48:45.979Z,15.23
2022-12-22T14:49:48.748Z,15.23
2022-12-22T14:50:52.483Z,15.52
2022-12-22T14:52:00.998Z,16.50
2022-12-22T14:53:05.143Z,15.23
2022-12-22T14:54:22.081Z,15.63
2022-12-22T14:55:38.245Z,15.65
2022-12-22T14:56:48.110Z,16.10
2022-12-22T14:58:09.207Z,14.65
2022-12-22T14:59:41.450Z,16.58
2022-12-22T15:00:49.057Z,13.68
2022-12-22T15:02:22.675Z,15.05
2022-12-22T15:03:25.617Z,14.90
2022-12-22T15:04:29.288Z,15.93
2022-12-22T15:05:39.244Z,13.98
2022-12-22T15:06:43.874Z,11.20
2022-12-22T15:09:14.867Z,15.13
2022-12-22T15:10:18.719Z,16.70
2022-12-22T15:11:24.453Z,16.13
2022-12-22T15:12:27.380Z,15.50
2022-12-22T15:13:30.480Z,16.00
2022-12-22T15:14:38.842Z,15.65
2022-12-22T15:15:41.939Z,18.20
2022-12-22T15:16:45.686Z,16.65
2022-12-22T15:17:51.314Z,16.40
2022-12-22T15:18:54.360Z,15.48
2022-12-22T15:19:59.902Z,16.52
2022-12-22T15:21:02.888Z,16.17
2022-12-22T15:22:08.120Z,15.32
2022-12-22T15:23:14.214Z,17.42
2022-12-22T15:24:18.273Z,15.77
2022-12-22T15:25:24.853Z,15.43
2022-12-22T15:26:28.926Z,15.88
2022-12-22T15:27:34.550Z,15.90
2022-12-22T15:28:37.544Z,15.93
2022-12-22T15:29:40.403Z,15.43